Dexter, ME (04930)

4:58 AM EDT on March 31, 2015 (GMT -0400)
KMEGARLA2 | | Change Station
CLOSE
Current Station
Personal Weather Station
Location: Garland, ME
Elevation: 410 ft
Nearby Weather Stations

Elev 410 ft 45.02 °N, 69.13 °W | Updated 1 second ago

Overcast
Overcast
30.9 °F
Feels Like 27 °F
N
4.0
Wind Variable Wind from SW
Gusts 11.0 mph

Today
High -- | Low -- °F
--% Chance of Precip.
Yesterday
High -- | Low -- °F
Precip. -- in
6:20 AM 7:03 PM
Waxing Gibbous, 85% visible
Pressure 29.56 in
Visibility 10.0 miles
Clouds Few 4400 ft
Mostly Cloudy 5000 ft
Overcast 7000 ft
Windchill 27 °F
Dew Point 30 °F
Humidity 96%
Rainfall 0.02 in
Snow Depth Not available.
UV 0 out of 12
Pollen 1.80 out of 12
Air Quality Not available.
Flu Activity Not available.
METAR KBGR 310853Z 28004KT 10SM -SN FEW044 BKN050 OVC070 00/M02 A2955 RMK AO2 SNB53 SLP008 P0000 60000 I3000 T00001017 55008

More Conditions Fewer Conditions

Pressure 29.56 in
Visibility 10.0 miles
Clouds Few 4400 ft
Mostly Cloudy 5000 ft
Overcast 7000 ft
Windchill 27 °F
Dew Point 30 °F
Humidity 96%
Rainfall 0.02 in
Snow Depth Not available.
UV 0 out of 12
Pollen 1.80 out of 12
Air Quality Not available.
Flu Activity Not available.
METAR KBGR 310853Z 28004KT 10SM -SN FEW044 BKN050 OVC070 00/M02 A2955 RMK AO2 SNB53 SLP008 P0000 60000 I3000 T00001017 55008

More Conditions Fewer Conditions

10-Day Weather Forecast

Almanac

Astronomy

Mar. 31, 2015 Rise Set
Actual Time
Civil Twilight
Nautical Twilight
Astronomical Twilight
Moon
Length of Visible Light
Length of Day
Tomorrow will be .
, % of the Moon is Illuminated

Today's Extremes

State Highs State Lows

Community

WunderPhotos

Upload Photos

1,809,732 photos uploaded!

WunderBlogs® & News

Nearby

Air Quality

  Air Quality AQ Index Pollutant
Not available.

Snow Depth

Station Depth Elevation

Earthquake Activity

City Distance Mag. Time & Date
Minimum magnitude displayed is 2.5.

Coastal Water Temperatures

Place Temperature

Stations

Nearby Weather Stations

Station Location Temp. Windchill Dew Point Humidity Wind Precip. Elev Updated Type